sensor_id;sensor_type;location;lat;lon;timestamp;P1;durP1;ratioP1;P2;durP2;ratioP2
5277;SDS011;2662;51.194;6.614;2023-05-17T00:00:33;6.23;;;1.90;;
5277;SDS011;2662;51.194;6.614;2023-05-17T00:03:00;9.80;;;2.73;;
5277;SDS011;2662;51.194;6.614;2023-05-17T00:05:27;6.73;;;2.23;;
5277;SDS011;2662;51.194;6.614;2023-05-17T00:07:55;2.50;;;2.00;;
5277;SDS011;2662;51.194;6.614;2023-05-17T00:10:22;8.80;;;2.43;;
5277;SDS011;2662;51.194;6.614;2023-05-17T00:12:48;4.90;;;2.37;;
5277;SDS011;2662;51.194;6.614;2023-05-17T00:15:15;3.40;;;1.80;;
5277;SDS011;2662;51.194;6.614;2023-05-17T00:17:42;6.47;;;2.20;;
5277;SDS011;2662;51.194;6.614;2023-05-17T00:20:09;5.30;;;2.40;;
5277;SDS011;2662;51.194;6.614;2023-05-17T00:22:36;4.33;;;2.20;;
5277;SDS011;2662;51.194;6.614;2023-05-17T00:25:06;6.77;;;2.40;;
5277;SDS011;2662;51.194;6.614;2023-05-17T00:27:33;7.40;;;2.13;;
5277;SDS011;2662;51.194;6.614;2023-05-17T00:30:00;3.80;;;2.13;;
5277;SDS011;2662;51.194;6.614;2023-05-17T00:32:26;5.10;;;2.00;;
5277;SDS011;2662;51.194;6.614;2023-05-17T00:34:53;3.03;;;1.97;;
5277;SDS011;2662;51.194;6.614;2023-05-17T00:37:20;10.37;;;2.37;;
5277;SDS011;2662;51.194;6.614;2023-05-17T00:39:46;3.90;;;2.40;;
5277;SDS011;2662;51.194;6.614;2023-05-17T00:42:15;3.40;;;2.20;;
5277;SDS011;2662;51.194;6.614;2023-05-17T00:44:41;7.33;;;2.30;;
5277;SDS011;2662;51.194;6.614;2023-05-17T00:47:08;3.83;;;2.30;;
5277;SDS011;2662;51.194;6.614;2023-05-17T00:49:35;6.33;;;2.50;;
5277;SDS011;2662;51.194;6.614;2023-05-17T00:52:02;7.40;;;2.53;;
5277;SDS011;2662;51.194;6.614;2023-05-17T00:54:29;7.10;;;2.50;;
5277;SDS011;2662;51.194;6.614;2023-05-17T00:56:56;6.20;;;2.67;;
5277;SDS011;2662;51.194;6.614;2023-05-17T00:59:26;5.30;;;2.90;;
5277;SDS011;2662;51.194;6.614;2023-05-17T01:01:54;12.83;;;3.10;;
5277;SDS011;2662;51.194;6.614;2023-05-17T01:04:21;9.30;;;3.37;;
5277;SDS011;2662;51.194;6.614;2023-05-17T01:06:49;12.07;;;3.50;;
5277;SDS011;2662;51.194;6.614;2023-05-17T01:09:16;7.40;;;3.00;;
5277;SDS011;2662;51.194;6.614;2023-05-17T01:11:45;8.63;;;3.13;;
5277;SDS011;2662;51.194;6.614;2023-05-17T01:14:36;5.77;;;3.30;;
5277;SDS011;2662;51.194;6.614;2023-05-17T01:17:11;3.83;;;3.43;;
5277;SDS011;2662;51.194;6.614;2023-05-17T01:19:56;8.83;;;3.57;;
5277;SDS011;2662;51.194;6.614;2023-05-17T01:22:38;12.90;;;3.60;;
5277;SDS011;2662;51.194;6.614;2023-05-17T01:25:19;9.90;;;3.63;;
5277;SDS011;2662;51.194;6.614;2023-05-17T01:28:00;15.50;;;4.40;;
5277;SDS011;2662;51.194;6.614;2023-05-17T01:30:28;7.23;;;3.53;;
5277;SDS011;2662;51.194;6.614;2023-05-17T01:32:57;4.50;;;3.33;;
5277;SDS011;2662;51.194;6.614;2023-05-17T01:35:25;7.97;;;3.87;;
5277;SDS011;2662;51.194;6.614;2023-05-17T01:37:52;10.63;;;3.97;;
5277;SDS011;2662;51.194;6.614;2023-05-17T01:40:19;11.93;;;3.90;;
5277;SDS011;2662;51.194;6.614;2023-05-17T01:42:47;15.83;;;3.83;;
5277;SDS011;2662;51.194;6.614;2023-05-17T01:45:22;10.90;;;4.43;;
5277;SDS011;2662;51.194;6.614;2023-05-17T01:47:55;12.47;;;3.80;;
5277;SDS011;2662;51.194;6.614;2023-05-17T01:50:29;14.10;;;4.47;;
5277;SDS011;2662;51.194;6.614;2023-05-17T01:53:01;15.90;;;4.10;;
5277;SDS011;2662;51.194;6.614;2023-05-17T01:55:36;12.27;;;3.90;;
5277;SDS011;2662;51.194;6.614;2023-05-17T01:58:08;14.80;;;4.27;;
5277;SDS011;2662;51.194;6.614;2023-05-17T02:00:38;8.50;;;3.90;;
5277;SDS011;2662;51.194;6.614;2023-05-17T02:03:06;16.50;;;4.53;;
5277;SDS011;2662;51.194;6.614;2023-05-17T02:05:37;13.33;;;3.73;;
5277;SDS011;2662;51.194;6.614;2023-05-17T02:08:04;21.00;;;4.40;;
5277;SDS011;2662;51.194;6.614;2023-05-17T02:10:31;12.57;;;4.00;;
5277;SDS011;2662;51.194;6.614;2023-05-17T02:12:57;7.43;;;4.33;;
5277;SDS011;2662;51.194;6.614;2023-05-17T02:15:24;13.00;;;4.60;;
5277;SDS011;2662;51.194;6.614;2023-05-17T02:17:52;8.57;;;4.00;;
5277;SDS011;2662;51.194;6.614;2023-05-17T02:20:19;11.17;;;3.80;;
5277;SDS011;2662;51.194;6.614;2023-05-17T02:22:46;16.83;;;4.97;;
5277;SDS011;2662;51.194;6.614;2023-05-17T02:25:13;11.63;;;4.67;;
5277;SDS011;2662;51.194;6.614;2023-05-17T02:27:40;12.20;;;4.00;;
5277;SDS011;2662;51.194;6.614;2023-05-17T02:30:07;12.80;;;5.13;;
5277;SDS011;2662;51.194;6.614;2023-05-17T02:32:34;8.97;;;4.20;;
5277;SDS011;2662;51.194;6.614;2023-05-17T02:35:02;8.63;;;4.40;;
5277;SDS011;2662;51.194;6.614;2023-05-17T02:37:29;16.07;;;4.77;;
5277;SDS011;2662;51.194;6.614;2023-05-17T02:39:56;9.13;;;3.83;;
5277;SDS011;2662;51.194;6.614;2023-05-17T02:42:23;11.87;;;4.93;;
5277;SDS011;2662;51.194;6.614;2023-05-17T02:44:50;11.10;;;4.20;;
5277;SDS011;2662;51.194;6.614;2023-05-17T02:47:20;20.37;;;4.57;;
5277;SDS011;2662;51.194;6.614;2023-05-17T02:49:47;10.27;;;4.43;;
5277;SDS011;2662;51.194;6.614;2023-05-17T02:52:15;14.00;;;4.97;;
5277;SDS011;2662;51.194;6.614;2023-05-17T02:54:42;14.37;;;4.70;;
5277;SDS011;2662;51.194;6.614;2023-05-17T02:57:09;11.47;;;5.23;;
5277;SDS011;2662;51.194;6.614;2023-05-17T02:59:36;14.43;;;4.80;;
5277;SDS011;2662;51.194;6.614;2023-05-17T03:02:03;16.97;;;4.70;;
5277;SDS011;2662;51.194;6.614;2023-05-17T03:04:30;12.20;;;4.60;;
5277;SDS011;2662;51.194;6.614;2023-05-17T03:06:57;19.10;;;4.80;;
5277;SDS011;2662;51.194;6.614;2023-05-17T03:09:25;17.33;;;5.63;;
5277;SDS011;2662;51.194;6.614;2023-05-17T03:11:53;18.03;;;5.80;;
5277;SDS011;2662;51.194;6.614;2023-05-17T03:14:20;19.93;;;4.90;;
5277;SDS011;2662;51.194;6.614;2023-05-17T03:16:47;18.90;;;5.27;;
5277;SDS011;2662;51.194;6.614;2023-05-17T03:19:14;23.40;;;5.90;;
5277;SDS011;2662;51.194;6.614;2023-05-17T03:21:41;12.60;;;6.10;;
5277;SDS011;2662;51.194;6.614;2023-05-17T03:24:08;16.73;;;5.73;;
5277;SDS011;2662;51.194;6.614;2023-05-17T03:26:36;16.93;;;5.90;;
5277;SDS011;2662;51.194;6.614;2023-05-17T03:29:03;21.00;;;6.13;;
5277;SDS011;2662;51.194;6.614;2023-05-17T03:31:29;13.07;;;5.33;;
5277;SDS011;2662;51.194;6.614;2023-05-17T03:33:56;19.40;;;6.87;;
5277;SDS011;2662;51.194;6.614;2023-05-17T03:36:23;22.27;;;6.93;;
5277;SDS011;2662;51.194;6.614;2023-05-17T03:38:50;13.40;;;6.67;;
5277;SDS011;2662;51.194;6.614;2023-05-17T03:41:16;15.60;;;7.50;;
5277;SDS011;2662;51.194;6.614;2023-05-17T03:43:45;21.83;;;8.27;;
5277;SDS011;2662;51.194;6.614;2023-05-17T03:46:11;15.30;;;7.13;;
5277;SDS011;2662;51.194;6.614;2023-05-17T03:48:38;21.30;;;7.80;;
5277;SDS011;2662;51.194;6.614;2023-05-17T03:51:05;18.33;;;7.10;;
5277;SDS011;2662;51.194;6.614;2023-05-17T03:53:32;23.77;;;8.50;;
5277;SDS011;2662;51.194;6.614;2023-05-17T03:55:59;22.70;;;8.00;;
5277;SDS011;2662;51.194;6.614;2023-05-17T03:58:25;14.73;;;7.47;;
5277;SDS011;2662;51.194;6.614;2023-05-17T04:00:53;22.13;;;8.23;;
5277;SDS011;2662;51.194;6.614;2023-05-17T04:03:20;28.80;;;8.60;;
5277;SDS011;2662;51.194;6.614;2023-05-17T04:05:47;21.00;;;7.77;;
5277;SDS011;2662;51.194;6.614;2023-05-17T04:08:14;23.10;;;7.83;;
5277;SDS011;2662;51.194;6.614;2023-05-17T04:10:41;26.07;;;8.43;;
5277;SDS011;2662;51.194;6.614;2023-05-17T04:13:08;26.50;;;7.93;;
5277;SDS011;2662;51.194;6.614;2023-05-17T04:15:35;28.97;;;7.83;;
5277;SDS011;2662;51.194;6.614;2023-05-17T04:18:03;18.30;;;7.77;;
5277;SDS011;2662;51.194;6.614;2023-05-17T04:20:30;24.10;;;8.90;;
5277;SDS011;2662;51.194;6.614;2023-05-17T04:22:57;19.67;;;7.40;;
5277;SDS011;2662;51.194;6.614;2023-05-17T04:25:24;22.90;;;7.20;;
5277;SDS011;2662;51.194;6.614;2023-05-17T04:27:51;23.37;;;8.40;;
5277;SDS011;2662;51.194;6.614;2023-05-17T04:30:18;22.33;;;7.70;;
5277;SDS011;2662;51.194;6.614;2023-05-17T04:32:45;29.03;;;7.50;;
5277;SDS011;2662;51.194;6.614;2023-05-17T04:35:15;20.27;;;6.80;;
5277;SDS011;2662;51.194;6.614;2023-05-17T04:37:42;16.27;;;7.30;;
5277;SDS011;2662;51.194;6.614;2023-05-17T04:40:09;17.10;;;7.37;;
5277;SDS011;2662;51.194;6.614;2023-05-17T04:42:36;18.87;;;6.80;;
5277;SDS011;2662;51.194;6.614;2023-05-17T04:45:03;24.63;;;7.23;;
5277;SDS011;2662;51.194;6.614;2023-05-17T04:47:31;25.20;;;7.50;;
5277;SDS011;2662;51.194;6.614;2023-05-17T04:49:58;18.73;;;6.60;;
5277;SDS011;2662;51.194;6.614;2023-05-17T04:52:26;16.93;;;8.23;;
5277;SDS011;2662;51.194;6.614;2023-05-17T04:54:53;17.33;;;7.10;;
5277;SDS011;2662;51.194;6.614;2023-05-17T04:57:20;22.00;;;7.53;;
5277;SDS011;2662;51.194;6.614;2023-05-17T04:59:46;21.63;;;6.63;;
5277;SDS011;2662;51.194;6.614;2023-05-17T05:02:13;29.37;;;7.70;;
5277;SDS011;2662;51.194;6.614;2023-05-17T05:04:40;19.60;;;7.37;;
5277;SDS011;2662;51.194;6.614;2023-05-17T05:07:07;16.30;;;6.90;;
5277;SDS011;2662;51.194;6.614;2023-05-17T05:09:35;27.00;;;8.30;;
5277;SDS011;2662;51.194;6.614;2023-05-17T05:12:01;21.83;;;7.80;;
5277;SDS011;2662;51.194;6.614;2023-05-17T05:14:28;23.17;;;8.10;;
5277;SDS011;2662;51.194;6.614;2023-05-17T05:16:55;25.83;;;7.60;;
5277;SDS011;2662;51.194;6.614;2023-05-17T05:19:22;17.27;;;6.93;;
5277;SDS011;2662;51.194;6.614;2023-05-17T05:21:48;12.30;;;6.60;;
5277;SDS011;2662;51.194;6.614;2023-05-17T05:24:15;27.70;;;6.70;;
5277;SDS011;2662;51.194;6.614;2023-05-17T05:26:43;12.00;;;6.87;;
5277;SDS011;2662;51.194;6.614;2023-05-17T05:29:10;16.93;;;6.43;;
5277;SDS011;2662;51.194;6.614;2023-05-17T05:31:37;16.67;;;6.60;;
5277;SDS011;2662;51.194;6.614;2023-05-17T05:34:04;12.60;;;6.37;;
5277;SDS011;2662;51.194;6.614;2023-05-17T05:36:31;15.37;;;6.40;;
5277;SDS011;2662;51.194;6.614;2023-05-17T05:38:58;20.90;;;6.50;;
5277;SDS011;2662;51.194;6.614;2023-05-17T05:41:25;15.50;;;6.93;;
5277;SDS011;2662;51.194;6.614;2023-05-17T05:43:53;18.97;;;6.70;;
5277;SDS011;2662;51.194;6.614;2023-05-17T05:46:20;13.90;;;5.63;;
5277;SDS011;2662;51.194;6.614;2023-05-17T05:48:46;12.20;;;5.57;;
5277;SDS011;2662;51.194;6.614;2023-05-17T05:51:13;22.60;;;6.53;;
5277;SDS011;2662;51.194;6.614;2023-05-17T05:53:40;14.60;;;5.90;;
5277;SDS011;2662;51.194;6.614;2023-05-17T05:56:06;21.70;;;6.23;;
5277;SDS011;2662;51.194;6.614;2023-05-17T05:58:33;17.90;;;6.03;;
5277;SDS011;2662;51.194;6.614;2023-05-17T06:01:01;18.53;;;5.77;;
5277;SDS011;2662;51.194;6.614;2023-05-17T06:03:28;15.77;;;5.77;;
5277;SDS011;2662;51.194;6.614;2023-05-17T06:05:55;19.60;;;5.90;;
5277;SDS011;2662;51.194;6.614;2023-05-17T06:08:22;14.67;;;5.87;;
5277;SDS011;2662;51.194;6.614;2023-05-17T06:10:48;16.33;;;6.20;;
5277;SDS011;2662;51.194;6.614;2023-05-17T06:13:16;11.60;;;5.80;;
5277;SDS011;2662;51.194;6.614;2023-05-17T06:15:42;17.87;;;5.80;;
5277;SDS011;2662;51.194;6.614;2023-05-17T06:18:11;17.73;;;5.77;;
5277;SDS011;2662;51.194;6.614;2023-05-17T06:20:38;16.33;;;5.50;;
5277;SDS011;2662;51.194;6.614;2023-05-17T06:23:04;18.93;;;5.77;;
5277;SDS011;2662;51.194;6.614;2023-05-17T06:25:31;17.97;;;5.70;;
5277;SDS011;2662;51.194;6.614;2023-05-17T06:27:58;13.50;;;5.60;;
5277;SDS011;2662;51.194;6.614;2023-05-17T06:30:26;15.50;;;5.20;;
5277;SDS011;2662;51.194;6.614;2023-05-17T06:32:53;21.17;;;5.97;;
5277;SDS011;2662;51.194;6.614;2023-05-17T06:35:21;16.77;;;5.03;;
5277;SDS011;2662;51.194;6.614;2023-05-17T06:37:48;12.63;;;4.77;;
5277;SDS011;2662;51.194;6.614;2023-05-17T06:40:15;16.80;;;4.43;;
5277;SDS011;2662;51.194;6.614;2023-05-17T06:42:42;13.07;;;5.20;;
5277;SDS011;2662;51.194;6.614;2023-05-17T06:45:09;19.93;;;3.63;;
5277;SDS011;2662;51.194;6.614;2023-05-17T06:47:36;12.13;;;3.40;;
5277;SDS011;2662;51.194;6.614;2023-05-17T06:50:03;10.27;;;4.00;;
5277;SDS011;2662;51.194;6.614;2023-05-17T06:52:31;14.77;;;3.93;;
5277;SDS011;2662;51.194;6.614;2023-05-17T06:54:58;12.47;;;3.60;;
5277;SDS011;2662;51.194;6.614;2023-05-17T06:57:24;7.97;;;3.00;;
5277;SDS011;2662;51.194;6.614;2023-05-17T06:59:51;10.50;;;3.10;;
5277;SDS011;2662;51.194;6.614;2023-05-17T07:02:18;11.20;;;3.37;;
5277;SDS011;2662;51.194;6.614;2023-05-17T07:04:45;21.90;;;3.07;;
5277;SDS011;2662;51.194;6.614;2023-05-17T07:07:11;11.03;;;2.50;;
5277;SDS011;2662;51.194;6.614;2023-05-17T07:09:39;9.13;;;2.70;;
5277;SDS011;2662;51.194;6.614;2023-05-17T07:12:06;12.40;;;3.73;;
5277;SDS011;2662;51.194;6.614;2023-05-17T07:14:33;10.23;;;2.70;;
5277;SDS011;2662;51.194;6.614;2023-05-17T07:17:00;10.93;;;2.40;;
5277;SDS011;2662;51.194;6.614;2023-05-17T07:19:26;14.53;;;3.13;;
5277;SDS011;2662;51.194;6.614;2023-05-17T07:21:53;11.77;;;2.90;;
5277;SDS011;2662;51.194;6.614;2023-05-17T07:24:20;9.70;;;2.97;;
5277;SDS011;2662;51.194;6.614;2023-05-17T07:26:48;6.63;;;2.67;;
5277;SDS011;2662;51.194;6.614;2023-05-17T07:29:14;9.17;;;3.03;;
5277;SDS011;2662;51.194;6.614;2023-05-17T07:31:41;10.27;;;3.03;;
5277;SDS011;2662;51.194;6.614;2023-05-17T07:34:08;8.17;;;2.40;;
5277;SDS011;2662;51.194;6.614;2023-05-17T07:36:35;8.10;;;2.40;;
5277;SDS011;2662;51.194;6.614;2023-05-17T07:39:01;13.83;;;2.87;;
5277;SDS011;2662;51.194;6.614;2023-05-17T07:41:29;16.77;;;3.47;;
5277;SDS011;2662;51.194;6.614;2023-05-17T07:43:59;15.30;;;3.03;;
5277;SDS011;2662;51.194;6.614;2023-05-17T07:46:25;12.67;;;3.13;;
5277;SDS011;2662;51.194;6.614;2023-05-17T07:48:52;7.57;;;2.50;;
5277;SDS011;2662;51.194;6.614;2023-05-17T07:51:19;9.57;;;2.87;;
5277;SDS011;2662;51.194;6.614;2023-05-17T07:53:46;5.70;;;2.50;;
5277;SDS011;2662;51.194;6.614;2023-05-17T07:56:12;8.63;;;2.87;;
5277;SDS011;2662;51.194;6.614;2023-05-17T07:58:39;8.13;;;2.40;;
5277;SDS011;2662;51.194;6.614;2023-05-17T08:01:07;10.27;;;3.30;;
5277;SDS011;2662;51.194;6.614;2023-05-17T08:03:34;8.53;;;2.33;;
5277;SDS011;2662;51.194;6.614;2023-05-17T08:06:01;12.63;;;3.10;;
5277;SDS011;2662;51.194;6.614;2023-05-17T08:08:28;10.60;;;2.97;;
5277;SDS011;2662;51.194;6.614;2023-05-17T08:10:54;11.83;;;2.80;;
5277;SDS011;2662;51.194;6.614;2023-05-17T08:13:21;14.67;;;2.97;;
5277;SDS011;2662;51.194;6.614;2023-05-17T08:15:48;11.27;;;2.70;;
5277;SDS011;2662;51.194;6.614;2023-05-17T08:18:17;9.33;;;1.93;;
5277;SDS011;2662;51.194;6.614;2023-05-17T08:20:43;9.37;;;2.30;;
5277;SDS011;2662;51.194;6.614;2023-05-17T08:23:10;8.63;;;2.00;;
5277;SDS011;2662;51.194;6.614;2023-05-17T08:25:37;9.77;;;2.27;;
5277;SDS011;2662;51.194;6.614;2023-05-17T08:28:03;9.93;;;2.53;;
5277;SDS011;2662;51.194;6.614;2023-05-17T08:30:30;7.10;;;1.70;;
5277;SDS011;2662;51.194;6.614;2023-05-17T08:32:57;12.90;;;2.57;;
5277;SDS011;2662;51.194;6.614;2023-05-17T08:35:25;9.43;;;2.57;;
5277;SDS011;2662;51.194;6.614;2023-05-17T08:37:52;9.13;;;2.23;;
5277;SDS011;2662;51.194;6.614;2023-05-17T08:40:19;10.27;;;2.00;;
5277;SDS011;2662;51.194;6.614;2023-05-17T08:42:47;8.13;;;1.93;;
5277;SDS011;2662;51.194;6.614;2023-05-17T08:45:15;13.93;;;2.57;;
5277;SDS011;2662;51.194;6.614;2023-05-17T08:47:42;14.00;;;2.60;;
5277;SDS011;2662;51.194;6.614;2023-05-17T08:50:10;14.13;;;3.20;;
5277;SDS011;2662;51.194;6.614;2023-05-17T08:52:40;9.80;;;2.03;;
5277;SDS011;2662;51.194;6.614;2023-05-17T08:55:10;10.80;;;2.60;;
5277;SDS011;2662;51.194;6.614;2023-05-17T08:57:40;8.60;;;2.10;;
5277;SDS011;2662;51.194;6.614;2023-05-17T09:00:08;8.43;;;1.87;;
5277;SDS011;2662;51.194;6.614;2023-05-17T09:02:38;17.47;;;2.60;;
5277;SDS011;2662;51.194;6.614;2023-05-17T09:05:06;9.77;;;2.30;;
5277;SDS011;2662;51.194;6.614;2023-05-17T09:07:33;15.07;;;2.60;;
5277;SDS011;2662;51.194;6.614;2023-05-17T09:10:01;11.13;;;2.10;;
5277;SDS011;2662;51.194;6.614;2023-05-17T09:12:29;14.30;;;2.57;;
5277;SDS011;2662;51.194;6.614;2023-05-17T09:15:10;5.90;;;2.20;;
5277;SDS011;2662;51.194;6.614;2023-05-17T09:17:39;17.80;;;2.67;;
5277;SDS011;2662;51.194;6.614;2023-05-17T09:20:06;9.73;;;2.50;;
5277;SDS011;2662;51.194;6.614;2023-05-17T09:22:34;10.63;;;2.20;;
5277;SDS011;2662;51.194;6.614;2023-05-17T09:25:02;11.10;;;2.27;;
5277;SDS011;2662;51.194;6.614;2023-05-17T09:27:30;7.83;;;1.93;;
5277;SDS011;2662;51.194;6.614;2023-05-17T09:29:57;7.53;;;2.20;;
5277;SDS011;2662;51.194;6.614;2023-05-17T09:32:23;8.43;;;2.10;;
5277;SDS011;2662;51.194;6.614;2023-05-17T09:55:31;6.63;;;2.00;;
5277;SDS011;2662;51.194;6.614;2023-05-17T11:52:30;8.40;;;1.70;;
5277;SDS011;2662;51.194;6.614;2023-05-17T11:54:57;7.00;;;1.50;;
5277;SDS011;2662;51.194;6.614;2023-05-17T11:57:28;4.57;;;1.30;;
5277;SDS011;2662;51.194;6.614;2023-05-17T11:59:59;7.33;;;1.60;;
5277;SDS011;2662;51.194;6.614;2023-05-17T12:02:28;18.73;;;2.07;;
5277;SDS011;2662;51.194;6.614;2023-05-17T12:04:55;6.47;;;1.80;;
5277;SDS011;2662;51.194;6.614;2023-05-17T12:07:22;4.43;;;1.77;;
5277;SDS011;2662;51.194;6.614;2023-05-17T12:09:51;5.90;;;1.77;;
5277;SDS011;2662;51.194;6.614;2023-05-17T12:12:18;3.70;;;1.97;;
5277;SDS011;2662;51.194;6.614;2023-05-17T12:14:46;9.00;;;1.57;;
5277;SDS011;2662;51.194;6.614;2023-05-17T12:17:17;15.20;;;2.57;;
5277;SDS011;2662;51.194;6.614;2023-05-17T12:19:52;7.50;;;1.83;;
5277;SDS011;2662;51.194;6.614;2023-05-17T12:22:19;9.10;;;2.17;;
5277;SDS011;2662;51.194;6.614;2023-05-17T12:24:46;6.40;;;1.30;;
5277;SDS011;2662;51.194;6.614;2023-05-17T12:27:14;7.97;;;1.73;;
5277;SDS011;2662;51.194;6.614;2023-05-17T12:29:51;2.77;;;1.73;;
5277;SDS011;2662;51.194;6.614;2023-05-17T12:32:18;10.20;;;2.60;;
5277;SDS011;2662;51.194;6.614;2023-05-17T12:34:45;7.50;;;1.90;;
5277;SDS011;2662;51.194;6.614;2023-05-17T12:37:13;7.43;;;1.73;;
5277;SDS011;2662;51.194;6.614;2023-05-17T12:39:40;6.07;;;1.80;;
5277;SDS011;2662;51.194;6.614;2023-05-17T12:42:07;5.17;;;1.83;;
5277;SDS011;2662;51.194;6.614;2023-05-17T12:44:36;4.83;;;2.17;;
5277;SDS011;2662;51.194;6.614;2023-05-17T12:47:02;5.43;;;1.83;;
5277;SDS011;2662;51.194;6.614;2023-05-17T12:49:29;5.73;;;1.73;;
5277;SDS011;2662;51.194;6.614;2023-05-17T12:51:56;2.50;;;1.53;;
5277;SDS011;2662;51.194;6.614;2023-05-17T12:54:29;4.93;;;1.33;;
5277;SDS011;2662;51.194;6.614;2023-05-17T12:56:55;3.33;;;1.67;;
5277;SDS011;2662;51.194;6.614;2023-05-17T12:59:22;5.00;;;1.87;;
5277;SDS011;2662;51.194;6.614;2023-05-17T13:01:52;9.30;;;2.33;;
5277;SDS011;2662;51.194;6.614;2023-05-17T13:04:29;15.43;;;1.80;;
5277;SDS011;2662;51.194;6.614;2023-05-17T13:27:18;5.17;;;2.00;;
5277;SDS011;2662;51.194;6.614;2023-05-17T13:29:48;11.33;;;2.00;;
5277;SDS011;2662;51.194;6.614;2023-05-17T13:32:15;3.27;;;1.80;;
5277;SDS011;2662;51.194;6.614;2023-05-17T13:34:41;2.80;;;1.87;;
5277;SDS011;2662;51.194;6.614;2023-05-17T13:37:08;5.27;;;2.03;;
5277;SDS011;2662;51.194;6.614;2023-05-17T13:39:35;4.67;;;2.00;;
5277;SDS011;2662;51.194;6.614;2023-05-17T13:42:02;8.10;;;2.17;;
5277;SDS011;2662;51.194;6.614;2023-05-17T13:44:31;3.93;;;1.80;;
5277;SDS011;2662;51.194;6.614;2023-05-17T13:46:57;9.20;;;2.70;;
5277;SDS011;2662;51.194;6.614;2023-05-17T13:49:24;8.97;;;2.00;;
5277;SDS011;2662;51.194;6.614;2023-05-17T13:51:52;3.80;;;1.63;;
5277;SDS011;2662;51.194;6.614;2023-05-17T13:54:19;10.80;;;1.60;;
5277;SDS011;2662;51.194;6.614;2023-05-17T13:56:45;6.63;;;1.50;;
5277;SDS011;2662;51.194;6.614;2023-05-17T13:59:13;7.03;;;1.80;;
5277;SDS011;2662;51.194;6.614;2023-05-17T14:01:41;6.67;;;2.10;;
5277;SDS011;2662;51.194;6.614;2023-05-17T14:04:08;5.40;;;1.63;;
5277;SDS011;2662;51.194;6.614;2023-05-17T14:06:34;5.97;;;2.17;;
5277;SDS011;2662;51.194;6.614;2023-05-17T14:09:01;6.83;;;2.77;;
5277;SDS011;2662;51.194;6.614;2023-05-17T14:11:28;7.53;;;1.80;;
5277;SDS011;2662;51.194;6.614;2023-05-17T14:13:54;6.37;;;1.57;;
5277;SDS011;2662;51.194;6.614;2023-05-17T14:16:21;4.93;;;2.37;;
5277;SDS011;2662;51.194;6.614;2023-05-17T14:18:49;9.90;;;1.80;;
5277;SDS011;2662;51.194;6.614;2023-05-17T14:21:16;8.33;;;1.97;;
5277;SDS011;2662;51.194;6.614;2023-05-17T14:23:43;7.27;;;1.70;;
5277;SDS011;2662;51.194;6.614;2023-05-17T14:26:10;4.17;;;2.17;;
5277;SDS011;2662;51.194;6.614;2023-05-17T14:28:36;3.77;;;1.47;;
5277;SDS011;2662;51.194;6.614;2023-05-17T14:31:03;7.20;;;2.20;;
5277;SDS011;2662;51.194;6.614;2023-05-17T14:33:31;7.93;;;1.80;;
5277;SDS011;2662;51.194;6.614;2023-05-17T14:35:59;5.90;;;2.30;;
5277;SDS011;2662;51.194;6.614;2023-05-17T14:38:27;6.13;;;2.20;;
5277;SDS011;2662;51.194;6.614;2023-05-17T14:40:54;12.23;;;1.90;;
5277;SDS011;2662;51.194;6.614;2023-05-17T14:43:21;5.20;;;2.17;;
5277;SDS011;2662;51.194;6.614;2023-05-17T14:45:47;5.90;;;1.60;;
5277;SDS011;2662;51.194;6.614;2023-05-17T14:48:14;8.70;;;2.40;;
5277;SDS011;2662;51.194;6.614;2023-05-17T14:50:41;9.93;;;2.40;;
5277;SDS011;2662;51.194;6.614;2023-05-17T14:53:09;4.87;;;2.10;;
5277;SDS011;2662;51.194;6.614;2023-05-17T14:58:48;5.93;;;2.10;;
5277;SDS011;2662;51.194;6.614;2023-05-17T15:01:15;4.60;;;2.00;;
5277;SDS011;2662;51.194;6.614;2023-05-17T15:03:42;3.07;;;1.60;;
5277;SDS011;2662;51.194;6.614;2023-05-17T15:06:08;6.20;;;2.60;;
5277;SDS011;2662;51.194;6.614;2023-05-17T15:08:37;6.90;;;2.10;;
5277;SDS011;2662;51.194;6.614;2023-05-17T15:11:04;7.73;;;2.17;;
5277;SDS011;2662;51.194;6.614;2023-05-17T15:13:31;5.70;;;2.20;;
5277;SDS011;2662;51.194;6.614;2023-05-17T15:15:58;6.00;;;2.80;;
5277;SDS011;2662;51.194;6.614;2023-05-17T15:18:24;2.27;;;2.07;;
5277;SDS011;2662;51.194;6.614;2023-05-17T15:20:51;9.30;;;2.60;;
5277;SDS011;2662;51.194;6.614;2023-05-17T15:23:18;6.93;;;1.87;;
5277;SDS011;2662;51.194;6.614;2023-05-17T15:25:46;6.60;;;1.90;;
5277;SDS011;2662;51.194;6.614;2023-05-17T15:28:13;8.23;;;3.00;;
5277;SDS011;2662;51.194;6.614;2023-05-17T15:30:39;7.23;;;2.47;;
5277;SDS011;2662;51.194;6.614;2023-05-17T15:33:06;6.23;;;2.70;;
5277;SDS011;2662;51.194;6.614;2023-05-17T15:35:33;4.10;;;2.40;;
5277;SDS011;2662;51.194;6.614;2023-05-17T15:38:02;10.67;;;2.93;;
5277;SDS011;2662;51.194;6.614;2023-05-17T15:40:30;11.17;;;3.40;;
5277;SDS011;2662;51.194;6.614;2023-05-17T15:42:59;9.40;;;3.50;;
5277;SDS011;2662;51.194;6.614;2023-05-17T15:45:25;10.90;;;3.67;;
5277;SDS011;2662;51.194;6.614;2023-05-17T15:47:52;8.83;;;3.13;;
5277;SDS011;2662;51.194;6.614;2023-05-17T15:50:20;7.83;;;3.30;;
5277;SDS011;2662;51.194;6.614;2023-05-17T15:52:47;8.90;;;3.03;;
5277;SDS011;2662;51.194;6.614;2023-05-17T15:55:14;10.70;;;2.83;;
5277;SDS011;2662;51.194;6.614;2023-05-17T15:57:41;7.90;;;2.83;;
5277;SDS011;2662;51.194;6.614;2023-05-17T16:00:10;6.73;;;3.00;;
5277;SDS011;2662;51.194;6.614;2023-05-17T16:02:37;5.00;;;2.20;;
5277;SDS011;2662;51.194;6.614;2023-05-17T16:05:04;4.53;;;2.53;;
5277;SDS011;2662;51.194;6.614;2023-05-17T16:07:32;7.90;;;2.23;;
5277;SDS011;2662;51.194;6.614;2023-05-17T16:09:59;4.37;;;2.60;;
5277;SDS011;2662;51.194;6.614;2023-05-17T16:12:25;7.30;;;2.50;;
5277;SDS011;2662;51.194;6.614;2023-05-17T16:14:52;9.73;;;3.23;;
5277;SDS011;2662;51.194;6.614;2023-05-17T16:17:20;8.20;;;3.57;;
5277;SDS011;2662;51.194;6.614;2023-05-17T16:19:47;8.43;;;3.40;;
5277;SDS011;2662;51.194;6.614;2023-05-17T16:22:13;7.47;;;3.20;;
5277;SDS011;2662;51.194;6.614;2023-05-17T16:24:40;8.50;;;2.80;;
5277;SDS011;2662;51.194;6.614;2023-05-17T16:27:07;9.07;;;2.70;;
5277;SDS011;2662;51.194;6.614;2023-05-17T16:29:34;6.97;;;2.20;;
5277;SDS011;2662;51.194;6.614;2023-05-17T16:32:04;10.93;;;2.30;;
5277;SDS011;2662;51.194;6.614;2023-05-17T16:34:32;7.73;;;2.60;;
5277;SDS011;2662;51.194;6.614;2023-05-17T16:36:59;8.97;;;2.40;;
5277;SDS011;2662;51.194;6.614;2023-05-17T16:39:28;12.87;;;2.60;;
5277;SDS011;2662;51.194;6.614;2023-05-17T16:41:54;10.90;;;2.40;;
5277;SDS011;2662;51.194;6.614;2023-05-17T16:44:21;11.37;;;2.40;;
5277;SDS011;2662;51.194;6.614;2023-05-17T16:46:48;6.20;;;2.60;;
5277;SDS011;2662;51.194;6.614;2023-05-17T16:49:15;9.17;;;2.60;;
5277;SDS011;2662;51.194;6.614;2023-05-17T16:51:43;13.53;;;2.93;;
5277;SDS011;2662;51.194;6.614;2023-05-17T16:54:10;5.40;;;2.60;;
5277;SDS011;2662;51.194;6.614;2023-05-17T16:56:37;8.53;;;3.00;;
5277;SDS011;2662;51.194;6.614;2023-05-17T16:59:04;13.40;;;2.90;;
5277;SDS011;2662;51.194;6.614;2023-05-17T17:01:31;10.67;;;3.10;;
5277;SDS011;2662;51.194;6.614;2023-05-17T17:03:57;12.07;;;2.93;;
5277;SDS011;2662;51.194;6.614;2023-05-17T17:06:24;8.07;;;2.77;;
5277;SDS011;2662;51.194;6.614;2023-05-17T17:08:52;9.40;;;2.50;;
5277;SDS011;2662;51.194;6.614;2023-05-17T17:11:19;9.57;;;3.00;;
5277;SDS011;2662;51.194;6.614;2023-05-17T17:13:46;14.03;;;3.83;;
5277;SDS011;2662;51.194;6.614;2023-05-17T17:16:13;15.43;;;2.70;;
5277;SDS011;2662;51.194;6.614;2023-05-17T17:18:41;10.27;;;2.43;;
5277;SDS011;2662;51.194;6.614;2023-05-17T17:21:07;6.90;;;2.43;;
5277;SDS011;2662;51.194;6.614;2023-05-17T17:23:34;9.50;;;2.40;;
5277;SDS011;2662;51.194;6.614;2023-05-17T17:26:03;13.47;;;3.60;;
5277;SDS011;2662;51.194;6.614;2023-05-17T17:28:30;9.77;;;2.67;;
5277;SDS011;2662;51.194;6.614;2023-05-17T17:30:56;6.60;;;2.60;;
5277;SDS011;2662;51.194;6.614;2023-05-17T17:33:23;12.53;;;2.27;;
5277;SDS011;2662;51.194;6.614;2023-05-17T17:35:50;8.67;;;2.50;;
5277;SDS011;2662;51.194;6.614;2023-05-17T17:38:17;7.77;;;2.00;;
5277;SDS011;2662;51.194;6.614;2023-05-17T17:40:43;9.63;;;2.20;;
5277;SDS011;2662;51.194;6.614;2023-05-17T17:43:11;9.43;;;2.43;;
5277;SDS011;2662;51.194;6.614;2023-05-17T17:45:38;7.83;;;2.40;;
5277;SDS011;2662;51.194;6.614;2023-05-17T17:48:05;10.57;;;2.67;;